createdAt,value
2018-03-01T00:02:20.880Z,97483.02
2018-03-01T00:04:48.405Z,97482.13
2018-03-01T00:07:15.928Z,97484.23
2018-03-01T00:09:43.428Z,97483.13
2018-03-01T00:12:10.951Z,97469.36
2018-03-01T00:14:38.479Z,97476.33
2018-03-01T00:17:06.042Z,97480.09
2018-03-01T00:19:33.541Z,97465.70
2018-03-01T00:22:01.059Z,97459.14
2018-03-01T00:24:28.559Z,97452.07
2018-03-01T00:26:56.063Z,97463.50
2018-03-01T00:29:23.593Z,97450.56
2018-03-01T00:31:51.200Z,97449.47
2018-03-01T00:34:18.722Z,97456.00
2018-03-01T00:36:46.216Z,97456.75
2018-03-01T00:39:13.737Z,97447.63
2018-03-01T00:41:41.287Z,97449.30
2018-03-01T00:44:08.771Z,97454.16
2018-03-01T00:46:36.318Z,97449.72
2018-03-01T00:49:03.906Z,97451.39
2018-03-01T00:51:31.412Z,97451.39
2018-03-01T00:53:58.932Z,97448.20
2018-03-01T00:56:26.432Z,97448.93
2018-03-01T00:58:53.949Z,97444.44
2018-03-01T01:01:21.495Z,97445.58
2018-03-01T01:03:49.044Z,97443.53
2018-03-01T01:06:16.580Z,97441.80
2018-03-01T01:08:44.091Z,97432.70
2018-03-01T01:11:11.587Z,97431.81
2018-03-01T01:13:39.195Z,97423.91
2018-03-01T01:16:06.687Z,97401.08
2018-03-01T01:18:34.203Z,97404.10
2018-03-01T01:21:01.777Z,97410.76
2018-03-01T01:23:29.318Z,97407.09
2018-03-01T01:25:56.887Z,97405.25
2018-03-01T01:28:24.403Z,97409.98
2018-03-01T01:30:51.905Z,97398.66
2018-03-01T01:33:19.467Z,97396.89
2018-03-01T01:35:46.989Z,97398.29
2018-03-01T01:38:14.484Z,97394.48
2018-03-01T01:40:42.006Z,97392.49
2018-03-01T01:43:09.508Z,97391.80
2018-03-01T01:45:37.033Z,97388.92
2018-03-01T01:48:04.536Z,97384.20
2018-03-01T01:50:43.824Z,97379.18
2018-03-01T01:53:11.341Z,97375.77
2018-03-01T01:55:38.862Z,97375.83
2018-03-01T01:58:06.392Z,97372.17
2018-03-01T02:00:33.932Z,97365.84
2018-03-01T02:03:01.435Z,97367.36
2018-03-01T02:05:28.957Z,97369.04
2018-03-01T02:07:56.452Z,97369.41
2018-03-01T02:10:24.957Z,97363.02
2018-03-01T02:12:52.464Z,97355.53
2018-03-01T02:15:20.004Z,97351.04
2018-03-01T02:17:47.506Z,97354.22
2018-03-01T02:20:15.020Z,97348.83
2018-03-01T02:22:42.556Z,97353.12
2018-03-01T02:25:10.076Z,97346.07
2018-03-01T02:27:37.569Z,97340.26
2018-03-01T02:30:05.093Z,97338.53
2018-03-01T02:32:32.598Z,97345.54
2018-03-01T02:35:00.125Z,97344.19
2018-03-01T02:37:27.683Z,97344.61
2018-03-01T02:39:55.263Z,97337.31
2018-03-01T02:42:22.755Z,97332.08
2018-03-01T02:44:50.268Z,97327.91
2018-03-01T02:47:17.827Z,97324.76
2018-03-01T02:49:45.390Z,97329.06
2018-03-01T02:52:12.906Z,97320.42
2018-03-01T02:54:40.409Z,97321.91
2018-03-01T02:57:07.951Z,97313.27
2018-03-01T02:59:35.523Z,97313.21
2018-03-01T03:02:03.096Z,97310.34
2018-03-01T03:04:30.619Z,97306.57
2018-03-01T03:06:58.212Z,97310.59
2018-03-01T03:09:25.704Z,97311.17
2018-03-01T03:11:53.224Z,97311.79
2018-03-01T03:14:20.737Z,97314.76
2018-03-01T03:16:48.259Z,97308.55
2018-03-01T03:19:15.900Z,97310.44
2018-03-01T03:21:43.464Z,97306.03
2018-03-01T03:24:10.979Z,97298.81
2018-03-01T03:26:38.588Z,97301.69
2018-03-01T03:29:06.075Z,97302.31
2018-03-01T03:31:33.737Z,97307.02
2018-03-01T03:34:01.228Z,97306.83
2018-03-01T03:36:30.763Z,97303.77
2018-03-01T03:38:58.267Z,97306.48
2018-03-01T03:41:27.724Z,97306.75
2018-03-01T03:43:56.179Z,97300.65
2018-03-01T03:46:23.699Z,97297.19
2018-03-01T03:48:51.200Z,97293.94
2018-03-01T03:51:18.753Z,97291.32
2018-03-01T03:53:46.347Z,97293.20
2018-03-01T03:56:13.853Z,97290.13
2018-03-01T03:58:41.376Z,97291.77
2018-03-01T04:01:09.816Z,97296.38
2018-03-01T04:03:37.387Z,97303.64
2018-03-01T04:06:04.959Z,97298.16
2018-03-01T04:08:32.475Z,97291.47
2018-03-01T04:10:59.967Z,97285.34
2018-03-01T04:13:27.495Z,97278.29
2018-03-01T04:15:54.999Z,97285.45
2018-03-01T04:18:22.532Z,97285.57
2018-03-01T04:20:50.108Z,97278.14
2018-03-01T04:23:17.631Z,97274.59
2018-03-01T04:25:45.139Z,97281.14
2018-03-01T04:28:12.664Z,97281.73
2018-03-01T04:30:40.180Z,97283.91
2018-03-01T04:33:07.722Z,97287.28
2018-03-01T04:35:35.223Z,97280.45
2018-03-01T04:38:02.746Z,97280.22
2018-03-01T04:40:30.262Z,97283.48
2018-03-01T04:42:57.851Z,97291.94
2018-03-01T04:45:25.345Z,97297.90
2018-03-01T04:47:53.187Z,97299.02
2018-03-01T04:50:20.776Z,97294.83
2018-03-01T04:52:48.305Z,97290.91
2018-03-01T04:55:15.799Z,97297.23
2018-03-01T04:57:43.408Z,97293.40
2018-03-01T05:00:10.912Z,97301.12
2018-03-01T05:02:38.559Z,97299.11
2018-03-01T05:05:06.095Z,97295.19
2018-03-01T05:07:33.593Z,97285.91
2018-03-01T05:10:01.164Z,97292.39
2018-03-01T05:12:28.663Z,97290.16
2018-03-01T05:14:56.300Z,97287.02
2018-03-01T05:17:23.792Z,97279.20
2018-03-01T05:19:51.319Z,97275.80
2018-03-01T05:22:18.923Z,97282.82
2018-03-01T05:24:46.447Z,97272.88
2018-03-01T05:27:13.996Z,97270.92
2018-03-01T05:29:41.522Z,97271.93
2018-03-01T05:32:09.043Z,97271.42
2018-03-01T05:34:36.561Z,97267.25
2018-03-01T05:37:04.061Z,97269.54
2018-03-01T05:39:31.605Z,97268.06
2018-03-01T05:41:59.112Z,97268.55
2018-03-01T05:44:26.656Z,97272.13
2018-03-01T05:46:54.172Z,97263.84
2018-03-01T05:49:21.732Z,97266.70
2018-03-01T05:51:49.228Z,97265.47
2018-03-01T05:54:16.761Z,97263.29
2018-03-01T05:56:44.269Z,97250.34
2018-03-01T05:59:12.707Z,97255.55
2018-03-01T06:01:40.225Z,97257.80
2018-03-01T06:04:07.760Z,97256.72
2018-03-01T06:06:35.392Z,97252.48
2018-03-01T06:09:04.783Z,97263.58
2018-03-01T06:11:32.531Z,97257.48
2018-03-01T06:14:01.528Z,97256.35
2018-03-01T06:16:32.197Z,97250.56
2018-03-01T06:19:00.896Z,97246.17
2018-03-01T06:21:30.235Z,97252.58
2018-03-01T06:24:05.000Z,97245.66
2018-03-01T06:26:32.520Z,97238.12
2018-03-01T06:29:00.083Z,97235.52
2018-03-01T06:31:27.583Z,97235.14
2018-03-01T06:33:55.153Z,97231.11
2018-03-01T06:36:22.649Z,97227.05
2018-03-01T06:38:50.154Z,97225.43
2018-03-01T06:41:17.679Z,97229.43
2018-03-01T06:43:45.279Z,97230.38
2018-03-01T06:46:12.832Z,97220.22
2018-03-01T06:48:40.333Z,97220.50
2018-03-01T06:51:07.863Z,97232.76
2018-03-01T06:53:35.367Z,97225.44
2018-03-01T06:56:02.879Z,97227.48
2018-03-01T06:58:30.397Z,97225.26
2018-03-01T07:00:57.919Z,97221.88
2018-03-01T07:03:25.423Z,97224.55
2018-03-01T07:05:52.999Z,97223.06
2018-03-01T07:08:20.518Z,97217.75
2018-03-01T07:10:48.063Z,97219.70
2018-03-01T07:13:15.584Z,97216.36
2018-03-01T07:15:43.136Z,97216.88
2018-03-01T07:18:10.698Z,97215.41
2018-03-01T07:20:38.224Z,97213.09
2018-03-01T07:23:05.728Z,97215.06
2018-03-01T07:25:33.272Z,97208.84
2018-03-01T07:28:00.795Z,97208.88
2018-03-01T07:30:28.311Z,97204.67
2018-03-01T07:32:55.920Z,97205.80
2018-03-01T07:35:23.403Z,97205.59
2018-03-01T07:37:50.964Z,97202.05
2018-03-01T07:40:18.556Z,97200.75
2018-03-01T07:42:46.059Z,97202.11
2018-03-01T07:45:13.615Z,97205.42
2018-03-01T07:47:41.124Z,97212.50
2018-03-01T07:50:08.772Z,97209.19
2018-03-01T07:52:36.276Z,97215.62
2018-03-01T07:55:03.893Z,97212.96
2018-03-01T07:57:31.392Z,97208.35
2018-03-01T07:59:59.916Z,97205.74
2018-03-01T08:02:33.010Z,97215.47
2018-03-01T08:05:01.475Z,97204.98
2018-03-01T08:07:29.052Z,97208.03
2018-03-01T08:09:56.543Z,97208.86
2018-03-01T08:12:24.069Z,97211.64
2018-03-01T08:14:51.570Z,97204.08
2018-03-01T08:17:20.129Z,97209.91
2018-03-01T08:19:47.624Z,97206.91
2018-03-01T08:22:15.145Z,97216.05
2018-03-01T08:24:42.643Z,97210.45
2018-03-01T08:27:10.208Z,97202.17
2018-03-01T08:29:37.811Z,97218.27
2018-03-01T08:32:05.352Z,97205.19
2018-03-01T08:34:32.877Z,97211.91
2018-03-01T08:37:00.401Z,97210.60
2018-03-01T08:39:27.891Z,97206.62
2018-03-01T08:41:55.517Z,97216.56
2018-03-01T08:44:23.097Z,97200.73
2018-03-01T08:46:50.651Z,97213.00
2018-03-01T08:49:18.155Z,97214.19
2018-03-01T08:51:45.675Z,97220.30
2018-03-01T08:54:13.183Z,97218.23
2018-03-01T08:56:40.781Z,97222.31
2018-03-01T08:59:08.279Z,97227.52
2018-03-01T09:01:35.788Z,97216.34
2018-03-01T09:04:03.296Z,97199.84
2018-03-01T09:06:30.836Z,97208.48
2018-03-01T09:08:58.348Z,97207.28
2018-03-01T09:11:25.840Z,97209.25
2018-03-01T09:13:53.416Z,97205.92
2018-03-01T09:16:20.900Z,97205.27
2018-03-01T09:18:48.415Z,97200.31
2018-03-01T09:21:16.059Z,97200.70
2018-03-01T09:23:43.615Z,97207.96
2018-03-01T09:26:11.107Z,97202.16
2018-03-01T09:28:38.732Z,97198.45
2018-03-01T09:31:06.296Z,97202.61
2018-03-01T09:33:33.817Z,97201.32
2018-03-01T09:36:01.322Z,97200.67
2018-03-01T09:38:28.836Z,97204.55
2018-03-01T09:40:56.327Z,97194.22
2018-03-01T09:43:23.865Z,97197.11
2018-03-01T09:45:51.360Z,97199.27
2018-03-01T09:48:19.520Z,97190.83
2018-03-01T09:50:47.045Z,97180.19
2018-03-01T09:53:14.578Z,97181.41
2018-03-01T09:55:42.104Z,97182.19
2018-03-01T09:58:09.619Z,97178.12
2018-03-01T10:00:37.115Z,97175.72
2018-03-01T10:03:04.674Z,97175.09
2018-03-01T10:05:32.184Z,97182.63
2018-03-01T10:07:59.709Z,97181.75
2018-03-01T10:10:27.257Z,97180.67
2018-03-01T10:12:54.806Z,97181.50
2018-03-01T10:15:22.299Z,97167.95
2018-03-01T10:17:49.818Z,97178.40
2018-03-01T10:20:17.339Z,97176.31
2018-03-01T10:22:44.823Z,97169.61
2018-03-01T10:27:45.171Z,97176.17
2018-03-01T10:30:12.691Z,97164.96
2018-03-01T10:32:40.207Z,97163.84
2018-03-01T10:35:07.732Z,97164.88
2018-03-01T10:37:35.316Z,97166.70
2018-03-01T10:40:02.882Z,97163.31
2018-03-01T10:42:30.388Z,97161.00
2018-03-01T10:44:57.915Z,97160.02
2018-03-01T10:47:25.446Z,97159.55
2018-03-01T10:49:52.964Z,97146.66
2018-03-01T10:52:20.483Z,97155.23
2018-03-01T10:54:48.008Z,97143.10
2018-03-01T10:57:15.507Z,97138.07
2018-03-01T10:59:43.056Z,97142.92
2018-03-01T11:02:10.548Z,97131.69
2018-03-01T11:04:38.071Z,97126.42
2018-03-01T11:07:05.588Z,97128.25
2018-03-01T11:09:33.108Z,97118.33
2018-03-01T11:12:00.627Z,97127.64
2018-03-01T11:14:28.155Z,97136.62
2018-03-01T11:16:55.673Z,97126.75
2018-03-01T11:19:23.186Z,97132.70
2018-03-01T11:21:50.676Z,97124.83
2018-03-01T11:24:18.177Z,97127.77
2018-03-01T11:26:45.715Z,97119.75
2018-03-01T11:29:13.250Z,97116.88
2018-03-01T11:31:40.748Z,97115.76
2018-03-01T11:34:08.291Z,97116.70
2018-03-01T11:36:35.814Z,97100.34
2018-03-01T11:39:03.314Z,97101.02
2018-03-01T11:41:30.853Z,97089.81
2018-03-01T11:43:58.355Z,97079.30
2018-03-01T11:46:25.878Z,97074.63
2018-03-01T11:48:53.376Z,97070.75
2018-03-01T11:51:20.893Z,97065.95
2018-03-01T11:53:48.384Z,97059.30
2018-03-01T11:56:15.928Z,97057.31
2018-03-01T11:58:43.436Z,97061.50
2018-03-01T12:01:10.951Z,97051.63
2018-03-01T12:03:38.476Z,97049.81
2018-03-01T12:06:05.996Z,97041.08
2018-03-01T12:08:33.494Z,97046.16
2018-03-01T12:11:01.986Z,97037.65
2018-03-01T12:13:29.521Z,97044.34
2018-03-01T12:15:57.100Z,97041.03
2018-03-01T12:18:24.960Z,97036.31
2018-03-01T12:20:52.528Z,97030.59
2018-03-01T12:23:20.041Z,97026.94
2018-03-01T12:25:47.561Z,97028.29
2018-03-01T12:28:15.073Z,97021.41
2018-03-01T12:30:42.624Z,97009.55
2018-03-01T12:33:10.119Z,97005.11
2018-03-01T12:35:37.625Z,97000.64
2018-03-01T12:38:05.137Z,96996.69
2018-03-01T12:40:32.661Z,96993.94
2018-03-01T12:43:00.184Z,96991.22
2018-03-01T12:45:27.689Z,96977.91
2018-03-01T12:47:55.304Z,96981.52
2018-03-01T12:50:22.791Z,96978.19
2018-03-01T12:52:50.309Z,96972.59
2018-03-01T12:55:17.828Z,96968.09
2018-03-01T12:57:45.348Z,96959.48
2018-03-01T13:00:12.847Z,96956.52
2018-03-01T13:02:40.356Z,96956.70
2018-03-01T13:05:08.776Z,96943.84
2018-03-01T13:07:36.313Z,96945.77
2018-03-01T13:10:03.809Z,96938.30
2018-03-01T13:12:31.333Z,96938.69
2018-03-01T13:14:59.242Z,96937.87
2018-03-01T13:17:26.714Z,96930.23
2018-03-01T13:19:55.195Z,96922.98
2018-03-01T13:22:22.708Z,96934.98
2018-03-01T13:24:50.200Z,96928.91
2018-03-01T13:27:17.721Z,96935.20
2018-03-01T13:29:45.219Z,96917.62
2018-03-01T13:32:13.696Z,96924.84
2018-03-01T13:34:54.017Z,96918.48
2018-03-01T13:37:21.536Z,96919.03
2018-03-01T13:39:49.056Z,96896.09
2018-03-01T13:42:20.772Z,96900.70
2018-03-01T13:44:48.264Z,96901.27
2018-03-01T13:47:15.788Z,96899.34
2018-03-01T13:49:43.294Z,96902.20
2018-03-01T13:52:10.788Z,96902.31
2018-03-01T13:54:38.330Z,96892.16
2018-03-01T13:57:05.828Z,96884.41
2018-03-01T13:59:33.343Z,96887.06
2018-03-01T14:02:00.876Z,96892.53
2018-03-01T14:04:28.383Z,96886.02
2018-03-01T14:06:56.684Z,96879.67
2018-03-01T14:09:37.969Z,96878.05
2018-03-01T14:12:05.460Z,96881.79
2018-03-01T14:14:49.793Z,96877.44
2018-03-01T14:17:27.204Z,96860.66
2018-03-01T14:20:00.414Z,96867.11
2018-03-01T14:25:30.053Z,96858.73
2018-03-01T14:28:04.024Z,96849.16
2018-03-01T14:30:35.101Z,96847.78
2018-03-01T14:33:02.666Z,96841.69
2018-03-01T14:35:30.161Z,96839.70
2018-03-01T14:37:57.667Z,96838.47
2018-03-01T14:40:25.229Z,96838.16
2018-03-01T14:42:52.729Z,96832.64
2018-03-01T14:45:20.247Z,96832.48
2018-03-01T14:47:47.813Z,96828.38
2018-03-01T14:50:15.368Z,96824.02
2018-03-01T14:52:42.930Z,96824.70
2018-03-01T14:55:10.451Z,96823.11
2018-03-01T14:57:37.958Z,96816.80
2018-03-01T15:00:05.576Z,96821.80
2018-03-01T15:02:33.158Z,96817.02
2018-03-01T15:05:01.001Z,96820.46
2018-03-01T15:07:28.514Z,96822.67
2018-03-01T15:09:56.044Z,96813.27
2018-03-01T15:12:23.552Z,96816.20
2018-03-01T15:14:51.413Z,96813.49
2018-03-01T15:17:18.934Z,96816.06
2018-03-01T15:19:46.476Z,96814.09
2018-03-01T15:22:13.972Z,96811.95
2018-03-01T15:24:41.499Z,96803.09
2018-03-01T15:27:09.181Z,96804.25
2018-03-01T15:29:36.707Z,96798.29
2018-03-01T15:32:04.196Z,96785.46
2018-03-01T15:34:31.721Z,96795.17
2018-03-01T15:36:59.300Z,96787.17
2018-03-01T15:39:26.836Z,96791.36
2018-03-01T15:41:54.330Z,96790.56
2018-03-01T15:44:21.865Z,96792.25
2018-03-01T15:46:49.446Z,96791.52
2018-03-01T15:49:17.005Z,96790.30
2018-03-01T15:51:44.552Z,96791.91
2018-03-01T15:54:12.054Z,96782.86
2018-03-01T15:56:40.503Z,96778.48
2018-03-01T15:59:07.996Z,96777.20
2018-03-01T16:01:35.520Z,96779.08
2018-03-01T16:04:03.016Z,96785.25
2018-03-01T16:06:30.531Z,96782.16
2018-03-01T16:08:58.319Z,96789.52
2018-03-01T16:11:25.833Z,96787.46
2018-03-01T16:13:53.351Z,96797.99
2018-03-01T16:16:20.878Z,96798.33
2018-03-01T16:18:48.368Z,96793.23
2018-03-01T16:21:15.906Z,96799.47
2018-03-01T16:23:43.412Z,96798.88
2018-03-01T16:26:10.932Z,96799.25
2018-03-01T16:28:38.443Z,96789.69
2018-03-01T16:31:06.036Z,96790.06
2018-03-01T16:33:33.564Z,96781.64
2018-03-01T16:36:01.101Z,96782.22
2018-03-01T16:38:29.003Z,96781.61
2018-03-01T16:40:56.511Z,96781.83
2018-03-01T16:43:24.003Z,96779.81
2018-03-01T16:45:51.541Z,96786.00
2018-03-01T16:48:19.057Z,96787.61
2018-03-01T16:50:46.556Z,96796.44
2018-03-01T16:53:15.024Z,96800.00
2018-03-01T16:55:42.515Z,96799.88
2018-03-01T16:58:10.033Z,96800.73
2018-03-01T17:00:37.597Z,96802.73
2018-03-01T17:03:05.240Z,96805.69
2018-03-01T17:05:32.768Z,96802.89
2018-03-01T17:08:00.284Z,96807.42
2018-03-01T17:10:27.833Z,96798.81
2018-03-01T17:12:55.489Z,96799.01
2018-03-01T17:15:22.988Z,96795.08
2018-03-01T17:17:50.519Z,96802.70
2018-03-01T17:20:18.087Z,96803.78
2018-03-01T17:22:45.617Z,96801.83
2018-03-01T17:25:14.096Z,96798.97
2018-03-01T17:27:41.628Z,96794.31
2018-03-01T17:30:09.116Z,96792.06
2018-03-01T17:32:36.636Z,96786.92
2018-03-01T17:35:04.156Z,96789.50
2018-03-01T17:37:31.717Z,96786.65
2018-03-01T17:39:59.220Z,96791.58
2018-03-01T17:42:26.749Z,96788.68
2018-03-01T17:44:54.295Z,96784.69
2018-03-01T17:47:21.841Z,96790.92
2018-03-01T17:49:49.349Z,96785.37
2018-03-01T17:52:16.867Z,96781.37
2018-03-01T17:54:44.422Z,96779.91
2018-03-01T17:57:11.922Z,96775.38
2018-03-01T17:59:39.415Z,96776.42
2018-03-01T18:02:07.008Z,96770.91
2018-03-01T18:04:34.556Z,96782.52
2018-03-01T18:07:02.060Z,96782.57
2018-03-01T18:09:29.571Z,96777.70
2018-03-01T18:11:57.088Z,96777.14
2018-03-01T18:14:24.660Z,96782.72
2018-03-01T18:16:52.185Z,96777.02
2018-03-01T18:19:19.704Z,96773.68
2018-03-01T18:21:47.266Z,96774.78
2018-03-01T18:24:14.788Z,96782.30
2018-03-01T18:26:42.284Z,96782.59
2018-03-01T18:29:09.799Z,96780.33
2018-03-01T18:31:37.296Z,96773.78
2018-03-01T18:34:04.863Z,96770.76
2018-03-01T18:36:32.424Z,96762.70
2018-03-01T18:38:59.951Z,96755.66
2018-03-01T18:41:27.535Z,96763.44
2018-03-01T18:43:55.059Z,96767.04
2018-03-01T18:46:22.566Z,96770.02
2018-03-01T18:48:50.120Z,96767.23
2018-03-01T18:51:17.636Z,96771.30
2018-03-01T18:53:45.159Z,96766.95
2018-03-01T18:56:12.698Z,96767.13
2018-03-01T18:58:41.156Z,96767.07
2018-03-01T19:01:08.675Z,96764.30
2018-03-01T19:03:36.163Z,96767.55
2018-03-01T19:06:03.740Z,96772.12
2018-03-01T19:08:31.315Z,96774.23
2018-03-01T19:10:58.832Z,96761.80
2018-03-01T19:13:26.517Z,96755.00
2018-03-01T19:15:54.059Z,96749.96
2018-03-01T19:18:21.660Z,96744.14
2018-03-01T19:20:49.220Z,96740.09
2018-03-01T19:23:16.781Z,96741.13
2018-03-01T19:25:44.335Z,96742.02
2018-03-01T19:28:11.895Z,96740.56
2018-03-01T19:30:39.433Z,96742.77
2018-03-01T19:33:06.932Z,96744.29
2018-03-01T19:35:34.576Z,96744.97
2018-03-01T19:38:02.069Z,96742.59
2018-03-01T19:40:29.800Z,96739.09
2018-03-01T19:42:57.311Z,96736.29
2018-03-01T19:45:24.918Z,96733.60
2018-03-01T19:47:52.420Z,96739.42
2018-03-01T19:50:20.052Z,96749.92
2018-03-01T19:52:47.570Z,96739.18
2018-03-01T19:55:15.132Z,96731.61
2018-03-01T19:57:42.624Z,96722.30
2018-03-01T20:00:10.144Z,96724.09
2018-03-01T20:02:37.640Z,96737.13
2018-03-01T20:05:05.192Z,96742.16
2018-03-01T20:07:32.765Z,96731.24
2018-03-01T20:10:00.330Z,96730.61
2018-03-01T20:12:27.855Z,96722.64
2018-03-01T20:14:55.428Z,96718.73
2018-03-01T20:17:22.952Z,96721.69
2018-03-01T20:19:50.448Z,96725.27
2018-03-01T20:22:17.975Z,96724.16
2018-03-01T20:24:45.477Z,96733.86
2018-03-01T20:27:12.992Z,96721.86
2018-03-01T20:29:40.494Z,96714.97
2018-03-01T20:32:08.012Z,96718.80
2018-03-01T20:34:35.521Z,96716.61
2018-03-01T20:37:03.181Z,96711.80
2018-03-01T20:39:30.794Z,96713.06
2018-03-01T20:41:58.376Z,96710.91
2018-03-01T20:44:25.854Z,96705.05
2018-03-01T20:46:53.399Z,96701.31
2018-03-01T20:49:20.920Z,96686.08
2018-03-01T20:51:48.457Z,96690.48
2018-03-01T20:54:15.991Z,96692.48
2018-03-01T20:56:43.508Z,96690.12
2018-03-01T20:59:10.999Z,96686.86
2018-03-01T21:01:38.570Z,96681.61
2018-03-01T21:04:06.125Z,96674.98
2018-03-01T21:06:33.636Z,96662.64
2018-03-01T21:09:01.133Z,96654.03
2018-03-01T21:11:28.653Z,96650.41
2018-03-01T21:13:56.158Z,96654.84
2018-03-01T21:16:23.714Z,96660.31
2018-03-01T21:18:51.260Z,96665.97
2018-03-01T21:21:18.900Z,96662.00
2018-03-01T21:23:46.418Z,96655.37
2018-03-01T21:26:13.920Z,96654.42
2018-03-01T21:28:41.523Z,96648.80
2018-03-01T21:31:09.068Z,96643.34
2018-03-01T21:33:36.581Z,96640.13
2018-03-01T21:36:04.085Z,96646.59
2018-03-01T21:38:32.556Z,96642.73
2018-03-01T21:41:00.080Z,96642.75
2018-03-01T21:43:27.604Z,96636.27
2018-03-01T21:45:55.129Z,96631.30
2018-03-01T21:48:22.644Z,96631.56
2018-03-01T21:50:50.156Z,96633.25
2018-03-01T21:53:17.691Z,96627.13
2018-03-01T21:55:45.205Z,96621.92
2018-03-01T21:58:12.758Z,96626.14
2018-03-01T22:00:40.268Z,96637.52
2018-03-01T22:03:07.801Z,96639.38
2018-03-01T22:05:35.324Z,96626.91
2018-03-01T22:08:02.840Z,96632.84
2018-03-01T22:10:30.436Z,96626.41
2018-03-01T22:12:58.003Z,96617.73
2018-03-01T22:15:25.535Z,96613.09
2018-03-01T22:17:53.053Z,96615.08
2018-03-01T22:20:20.572Z,96622.89
2018-03-01T22:22:48.127Z,96617.75
2018-03-01T22:25:15.623Z,96615.94
2018-03-01T22:27:43.243Z,96613.80
2018-03-01T22:30:10.759Z,96618.81
2018-03-01T22:32:38.251Z,96619.35
2018-03-01T22:35:05.821Z,96622.39
2018-03-01T22:37:33.606Z,96613.03
2018-03-01T22:40:01.164Z,96618.28
2018-03-01T22:42:28.700Z,96615.53
2018-03-01T22:44:56.388Z,96621.20
2018-03-01T22:47:23.895Z,96606.27
2018-03-01T22:49:51.491Z,96603.91
2018-03-01T22:52:19.021Z,96610.44
2018-03-01T22:54:46.542Z,96613.12
2018-03-01T22:57:14.044Z,96606.36
2018-03-01T22:59:41.636Z,96602.72
2018-03-01T23:02:09.255Z,96600.19
2018-03-01T23:04:36.851Z,96588.41
2018-03-01T23:07:04.431Z,96588.77
2018-03-01T23:09:31.960Z,96592.09
2018-03-01T23:11:59.460Z,96589.83
2018-03-01T23:14:27.056Z,96582.76
2018-03-01T23:16:54.655Z,96575.39
2018-03-01T23:19:22.293Z,96576.13
2018-03-01T23:21:49.795Z,96576.97
2018-03-01T23:24:17.320Z,96580.70
2018-03-01T23:26:44.817Z,96578.52
2018-03-01T23:29:12.339Z,96574.39
2018-03-01T23:31:39.836Z,96576.45
2018-03-01T23:34:07.380Z,96572.86
2018-03-01T23:36:34.883Z,96577.25
2018-03-01T23:39:02.379Z,96579.27
2018-03-01T23:41:29.900Z,96569.81
2018-03-01T23:43:57.396Z,96569.03
2018-03-01T23:46:24.948Z,96568.53
2018-03-01T23:48:52.520Z,96563.27
2018-03-01T23:51:20.080Z,96558.62
2018-03-01T23:53:47.605Z,96568.75
2018-03-01T23:56:15.196Z,96561.57
2018-03-01T23:58:42.690Z,96555.55
